createdAt,value
2019-01-19T00:02:35.028Z,96.00
2019-01-19T00:05:51.658Z,88.40
2019-01-19T00:08:38.728Z,85.37
2019-01-19T00:11:44.759Z,83.23
2019-01-19T00:14:54.053Z,83.03
2019-01-19T00:18:02.996Z,71.57
2019-01-19T00:21:04.040Z,73.80
2019-01-19T00:24:05.207Z,73.80
2019-01-19T00:27:17.980Z,65.23
2019-01-19T00:30:11.156Z,56.77
2019-01-19T00:32:49.327Z,55.63
2019-01-19T00:35:46.258Z,53.07
2019-01-19T00:39:02.339Z,50.93
2019-01-19T00:42:15.793Z,45.00
2019-01-19T00:45:15.219Z,41.60
2019-01-19T00:47:55.766Z,41.33
2019-01-19T00:51:00.977Z,40.70
2019-01-19T00:53:43.075Z,40.27
2019-01-19T00:56:45.795Z,41.03
2019-01-19T00:59:22.217Z,42.03
2019-01-19T01:02:24.389Z,42.53
2019-01-19T01:05:17.068Z,43.30
2019-01-19T01:08:02.320Z,42.40
2019-01-19T01:11:06.877Z,44.00
2019-01-19T01:14:05.215Z,44.03
2019-01-19T01:17:05.028Z,57.73
2019-01-19T01:20:30.703Z,53.33
2019-01-19T01:23:25.889Z,49.03
2019-01-19T01:26:41.782Z,52.53
2019-01-19T01:29:55.439Z,49.63
2019-01-19T01:32:43.395Z,48.10
2019-01-19T01:35:55.554Z,47.13
2019-01-19T01:38:48.489Z,48.20
2019-01-19T01:41:52.172Z,51.67
2019-01-19T01:44:42.950Z,52.13
2019-01-19T01:47:38.302Z,59.43
2019-01-19T01:50:25.588Z,60.77
2019-01-19T01:53:54.086Z,71.27
2019-01-19T01:56:23.632Z,68.53
2019-01-19T01:59:14.458Z,71.77
2019-01-19T02:02:06.653Z,77.27
2019-01-19T02:05:26.044Z,88.93
2019-01-19T02:08:41.055Z,83.40
2019-01-19T02:11:38.631Z,92.13
2019-01-19T02:14:57.947Z,96.00
2019-01-19T02:18:16.533Z,89.20
2019-01-19T02:20:56.140Z,93.13
2019-01-19T02:24:12.200Z,88.97
2019-01-19T02:27:23.860Z,87.33
2019-01-19T02:30:23.316Z,92.43
2019-01-19T02:33:15.209Z,92.00
2019-01-19T02:36:07.852Z,92.70
2019-01-19T02:39:20.125Z,83.30
2019-01-19T02:42:18.182Z,80.17
2019-01-19T02:45:19.913Z,70.70
2019-01-19T02:48:25.125Z,74.57
2019-01-19T02:51:16.041Z,71.10
2019-01-19T02:54:20.891Z,73.80
2019-01-19T02:57:34.665Z,56.33
2019-01-19T03:00:44.866Z,52.47
2019-01-19T03:03:40.374Z,51.13
2019-01-19T03:06:33.048Z,51.37
2019-01-19T03:09:33.103Z,51.77
2019-01-19T03:12:29.863Z,52.23
2019-01-19T03:15:52.423Z,55.20
2019-01-19T03:18:39.422Z,52.17
2019-01-19T03:21:45.048Z,49.33
2019-01-19T03:24:34.855Z,57.50
2019-01-19T03:27:29.478Z,56.10
2019-01-19T03:30:38.504Z,56.77
2019-01-19T03:33:36.599Z,52.50
2019-01-19T03:36:43.007Z,48.23
2019-01-19T03:40:11.372Z,48.33
2019-01-19T03:43:12.758Z,49.47
2019-01-19T03:46:28.367Z,47.40
2019-01-19T03:49:30.328Z,42.23
2019-01-19T03:52:37.814Z,40.63
2019-01-19T03:55:44.692Z,39.67
2019-01-19T03:58:48.164Z,40.63
2019-01-19T04:02:14.403Z,39.00
2019-01-19T04:05:08.461Z,41.77
2019-01-19T04:08:07.551Z,41.50
2019-01-19T04:11:08.698Z,45.40
2019-01-19T04:14:10.022Z,41.80
2019-01-19T04:17:19.490Z,42.70
2019-01-19T04:20:24.120Z,47.00
2019-01-19T04:22:57.600Z,46.93
2019-01-19T04:25:51.078Z,46.30
2019-01-19T04:28:22.853Z,48.70
2019-01-19T04:30:52.265Z,48.37
2019-01-19T04:33:21.652Z,50.07
2019-01-19T04:35:51.025Z,52.40
2019-01-19T04:38:20.387Z,56.20
2019-01-19T04:40:49.798Z,60.67
2019-01-19T04:43:19.188Z,57.17
2019-01-19T04:45:48.559Z,60.97
2019-01-19T04:48:19.570Z,62.20
2019-01-19T04:50:48.957Z,63.80
2019-01-19T04:53:18.354Z,63.27
2019-01-19T04:55:47.710Z,63.37
2019-01-19T04:58:17.126Z,63.77
2019-01-19T05:00:46.547Z,64.57
2019-01-19T05:03:15.935Z,62.10
2019-01-19T05:05:45.278Z,62.30
2019-01-19T05:08:14.631Z,59.33
2019-01-19T05:10:43.995Z,58.77
2019-01-19T05:13:13.343Z,59.30
2019-01-19T05:15:42.715Z,60.60
2019-01-19T05:18:12.275Z,59.87
2019-01-19T05:20:41.629Z,61.60
2019-01-19T05:23:11.034Z,56.83
2019-01-19T05:25:40.409Z,55.30
2019-01-19T05:28:09.798Z,52.47
2019-01-19T05:30:39.174Z,53.47
2019-01-19T05:33:08.545Z,53.40
2019-01-19T05:35:39.940Z,55.07
2019-01-19T05:38:09.325Z,54.13
2019-01-19T05:40:38.656Z,54.63
2019-01-19T05:43:08.045Z,54.40
2019-01-19T05:45:37.409Z,55.07
2019-01-19T05:48:07.454Z,55.63
2019-01-19T05:50:36.803Z,55.47
2019-01-19T05:53:06.158Z,56.33
2019-01-19T05:55:35.512Z,54.97
2019-01-19T05:58:04.898Z,55.47
2019-01-19T06:00:35.559Z,57.23
2019-01-19T06:03:05.527Z,56.80
2019-01-19T06:05:34.886Z,57.43
2019-01-19T06:08:04.352Z,59.20
2019-01-19T06:10:33.673Z,58.00
2019-01-19T06:13:03.085Z,55.50
2019-01-19T06:15:32.438Z,55.70
2019-01-19T06:18:01.841Z,54.23
2019-01-19T06:20:31.236Z,51.73
2019-01-19T06:23:00.686Z,51.20
2019-01-19T06:25:30.169Z,51.00
2019-01-19T06:27:59.639Z,52.87
2019-01-19T06:30:29.068Z,51.20
2019-01-19T06:32:58.479Z,47.70
2019-01-19T06:35:27.871Z,45.93
2019-01-19T06:37:57.254Z,48.03
2019-01-19T06:40:26.599Z,45.90
2019-01-19T06:42:55.964Z,47.43
2019-01-19T06:45:26.747Z,46.60
2019-01-19T06:47:56.069Z,46.37
2019-01-19T06:50:25.449Z,49.33
2019-01-19T06:52:54.825Z,46.43
2019-01-19T06:55:27.059Z,47.73
2019-01-19T06:57:57.339Z,47.57
2019-01-19T07:00:26.708Z,48.33
2019-01-19T07:02:56.144Z,46.50
2019-01-19T07:05:25.486Z,45.70
2019-01-19T07:07:54.892Z,45.43
2019-01-19T07:10:25.372Z,45.93
2019-01-19T07:12:54.737Z,47.60
2019-01-19T07:15:24.069Z,45.53
2019-01-19T07:17:53.546Z,44.40
2019-01-19T07:20:25.640Z,44.30
2019-01-19T07:22:55.038Z,46.23
2019-01-19T07:25:24.508Z,46.90
2019-01-19T07:27:53.842Z,46.73
2019-01-19T07:30:23.197Z,46.83
2019-01-19T07:32:52.518Z,55.90
2019-01-19T07:35:21.958Z,50.37
2019-01-19T07:37:51.435Z,46.20
2019-01-19T07:40:20.835Z,46.23
2019-01-19T07:42:54.129Z,47.83
2019-01-19T07:45:23.510Z,48.50
2019-01-19T07:47:52.902Z,46.83
2019-01-19T07:50:22.290Z,49.87
2019-01-19T07:52:51.653Z,50.53
2019-01-19T07:55:21.023Z,50.40
2019-01-19T07:57:50.451Z,50.20
2019-01-19T08:00:25.537Z,51.27
2019-01-19T08:02:55.139Z,51.63
2019-01-19T08:05:24.555Z,50.03
2019-01-19T08:07:53.934Z,49.33
2019-01-19T08:10:23.423Z,50.77
2019-01-19T08:12:52.905Z,51.50
2019-01-19T08:15:24.069Z,51.63
2019-01-19T08:17:53.584Z,53.13
2019-01-19T08:20:22.876Z,54.80
2019-01-19T08:22:52.334Z,52.33
2019-01-19T08:25:21.801Z,52.07
2019-01-19T08:27:53.501Z,50.17
2019-01-19T08:30:25.025Z,52.77
2019-01-19T08:32:54.553Z,54.17
2019-01-19T08:35:24.001Z,51.17
2019-01-19T08:37:53.372Z,51.20
2019-01-19T08:40:28.023Z,51.87
2019-01-19T08:43:19.413Z,52.23
2019-01-19T08:45:48.750Z,52.17
2019-01-19T08:48:20.546Z,51.13
2019-01-19T08:50:49.892Z,50.77
2019-01-19T08:53:19.338Z,50.23
2019-01-19T08:55:48.696Z,54.60
2019-01-19T08:58:18.412Z,50.43
2019-01-19T09:00:47.801Z,50.23
2019-01-19T09:03:17.327Z,50.97
2019-01-19T09:05:46.758Z,49.80
2019-01-19T09:08:16.135Z,47.93
2019-01-19T09:10:45.511Z,43.90
2019-01-19T09:13:14.855Z,37.37
2019-01-19T09:15:44.166Z,36.63
2019-01-19T09:18:13.540Z,38.63
2019-01-19T09:20:42.918Z,39.53
2019-01-19T09:23:17.868Z,42.87
2019-01-19T09:25:47.238Z,40.13
2019-01-19T09:28:16.742Z,40.03
2019-01-19T09:30:46.145Z,42.40
2019-01-19T09:33:15.523Z,41.33
2019-01-19T09:35:44.979Z,43.57
2019-01-19T09:38:14.344Z,43.57
2019-01-19T09:40:43.741Z,44.67
2019-01-19T09:43:13.075Z,45.33
2019-01-19T09:45:42.530Z,45.00
2019-01-19T09:48:11.884Z,47.00
2019-01-19T09:50:41.309Z,46.67
2019-01-19T09:53:10.691Z,48.23
2019-01-19T09:55:40.077Z,47.00
2019-01-19T09:58:09.690Z,44.30
2019-01-19T10:00:45.546Z,44.00
2019-01-19T10:03:10.259Z,44.33
2019-01-19T10:05:39.617Z,45.17
2019-01-19T10:08:08.962Z,47.10
2019-01-19T10:10:38.515Z,49.50
2019-01-19T10:13:07.902Z,57.57
2019-01-19T10:15:37.306Z,57.97
2019-01-19T10:18:06.703Z,74.13
2019-01-19T10:20:36.066Z,88.83
2019-01-19T10:23:05.477Z,95.80
2019-01-19T10:25:34.855Z,108.00
2019-01-19T10:28:07.784Z,110.57
2019-01-19T10:30:37.154Z,109.90
2019-01-19T10:33:07.774Z,112.23
2019-01-19T10:35:37.165Z,106.03
2019-01-19T10:38:06.518Z,104.40
2019-01-19T10:40:35.903Z,106.40
2019-01-19T10:43:05.881Z,105.83
2019-01-19T10:45:35.243Z,103.13
2019-01-19T10:48:07.234Z,102.33
2019-01-19T10:50:36.616Z,103.33
2019-01-19T10:53:06.146Z,101.93
2019-01-19T10:55:35.543Z,106.13
2019-01-19T10:58:04.934Z,89.90
2019-01-19T11:00:34.411Z,90.90
2019-01-19T11:03:04.040Z,82.97
2019-01-19T11:05:33.509Z,83.37
2019-01-19T11:08:04.243Z,82.47
2019-01-19T11:10:33.702Z,78.03
2019-01-19T11:13:03.068Z,79.90
2019-01-19T11:15:32.471Z,78.63
2019-01-19T11:18:01.870Z,76.77
2019-01-19T11:20:31.288Z,81.23
2019-01-19T11:23:01.266Z,79.20
2019-01-19T11:25:30.710Z,79.10
2019-01-19T11:28:00.087Z,75.17
2019-01-19T11:30:30.885Z,80.80
2019-01-19T11:33:00.636Z,81.17
2019-01-19T11:35:30.279Z,74.87
2019-01-19T11:37:59.710Z,75.13
2019-01-19T11:40:34.433Z,75.10
2019-01-19T11:43:03.912Z,70.83
2019-01-19T11:45:34.629Z,73.77
2019-01-19T11:48:04.133Z,74.40
2019-01-19T11:50:33.533Z,73.53
2019-01-19T11:53:02.899Z,73.13
2019-01-19T11:55:32.314Z,75.67
2019-01-19T11:58:03.561Z,74.93
2019-01-19T12:00:34.687Z,74.83
2019-01-19T12:03:04.550Z,73.20
2019-01-19T12:05:34.141Z,75.30
2019-01-19T12:08:03.600Z,73.10
2019-01-19T12:10:33.467Z,76.70
2019-01-19T12:13:02.855Z,82.60
2019-01-19T12:15:32.257Z,83.43
2019-01-19T12:18:01.732Z,80.27
2019-01-19T12:20:37.067Z,79.30
2019-01-19T12:23:06.733Z,76.97
2019-01-19T12:25:36.080Z,76.00
2019-01-19T12:28:05.594Z,72.77
2019-01-19T12:30:35.075Z,70.27
2019-01-19T12:33:04.695Z,70.83
2019-01-19T12:35:34.100Z,70.37
2019-01-19T12:38:03.613Z,65.70
2019-01-19T12:40:33.102Z,58.40
2019-01-19T12:43:08.674Z,58.57
2019-01-19T12:46:02.492Z,60.93
2019-01-19T12:48:31.949Z,56.27
2019-01-19T12:51:03.927Z,57.93
2019-01-19T12:53:33.295Z,53.67
2019-01-19T12:56:02.681Z,53.90
2019-01-19T12:58:32.050Z,54.47
2019-01-19T13:01:01.488Z,53.70
2019-01-19T13:03:30.904Z,53.53
2019-01-19T13:06:28.151Z,54.47
2019-01-19T13:08:57.522Z,53.07
2019-01-19T13:11:57.488Z,53.53
2019-01-19T13:14:27.189Z,53.13
2019-01-19T13:17:36.063Z,51.63
2019-01-19T13:20:31.574Z,51.17
2019-01-19T13:23:30.997Z,50.20
2019-01-19T13:26:15.877Z,48.27
2019-01-19T13:29:31.205Z,49.33
2019-01-19T13:32:44.853Z,48.07
2019-01-19T13:35:41.200Z,48.87
2019-01-19T13:38:41.752Z,50.70
2019-01-19T13:41:37.672Z,50.17
2019-01-19T13:45:06.413Z,51.60
2019-01-19T13:48:25.613Z,53.37
2019-01-19T13:51:35.858Z,53.23
2019-01-19T13:56:36.065Z,53.70
2019-01-19T13:59:41.454Z,59.90
2019-01-19T14:02:47.854Z,65.33
2019-01-19T14:05:42.445Z,68.90
2019-01-19T14:08:54.250Z,67.77
2019-01-19T14:11:56.366Z,63.37
2019-01-19T14:15:01.843Z,64.60
2019-01-19T14:17:55.955Z,65.83
2019-01-19T14:21:06.509Z,68.07
2019-01-19T14:24:05.831Z,70.33
2019-01-19T14:27:14.591Z,73.63
2019-01-19T14:30:19.603Z,78.63
2019-01-19T14:33:26.690Z,82.03
2019-01-19T14:36:20.269Z,85.57
2019-01-19T14:39:26.597Z,85.80
2019-01-19T14:42:56.248Z,90.40
2019-01-19T14:45:42.362Z,91.03
2019-01-19T14:48:45.005Z,91.03
2019-01-19T14:51:51.047Z,91.07
2019-01-19T14:55:22.528Z,92.00
2019-01-19T14:58:37.793Z,89.20
2019-01-19T15:03:50.043Z,85.03
2019-01-19T15:07:12.095Z,83.73
2019-01-19T15:10:12.491Z,83.13
2019-01-19T15:13:15.640Z,79.80
2019-01-19T15:16:50.094Z,82.13
2019-01-19T15:19:56.161Z,78.90
2019-01-19T15:22:55.342Z,83.50
2019-01-19T15:26:02.030Z,79.60
2019-01-19T15:29:00.600Z,79.93
2019-01-19T15:32:19.965Z,76.87
2019-01-19T15:38:12.296Z,91.57
2019-01-19T15:41:31.780Z,76.73
2019-01-19T15:44:51.315Z,73.43
2019-01-19T15:48:16.753Z,65.03
2019-01-19T15:51:39.095Z,68.13
2019-01-19T15:54:49.540Z,69.00
2019-01-19T15:57:45.849Z,64.83
2019-01-19T16:00:32.456Z,58.63
2019-01-19T16:03:13.730Z,55.50
2019-01-19T16:06:20.575Z,57.33
2019-01-19T16:09:24.683Z,53.33
2019-01-19T16:12:47.115Z,54.03
2019-01-19T16:16:03.450Z,47.23
2019-01-19T16:19:13.518Z,45.63
2019-01-19T16:22:04.253Z,36.03
2019-01-19T16:25:12.654Z,28.30
2019-01-19T16:28:00.539Z,27.93
2019-01-19T16:31:29.239Z,30.03
2019-01-19T16:34:48.352Z,26.23
2019-01-19T16:37:24.904Z,19.00
2019-01-19T16:40:29.897Z,18.50
2019-01-19T16:43:39.241Z,15.70
2019-01-19T16:46:51.261Z,16.90
2019-01-19T16:50:04.598Z,13.80
2019-01-19T16:53:09.692Z,11.83
2019-01-19T16:56:10.765Z,10.97
2019-01-19T16:59:20.081Z,10.60
2019-01-19T17:02:30.125Z,9.10
2019-01-19T17:05:26.651Z,9.50
2019-01-19T17:08:07.112Z,9.23
2019-01-19T17:11:05.350Z,9.13
2019-01-19T17:15:12.263Z,10.30
2019-01-19T17:18:13.452Z,10.53
2019-01-19T17:21:01.588Z,11.53
2019-01-19T17:24:06.076Z,10.13
2019-01-19T17:27:06.309Z,10.47
2019-01-19T17:30:17.371Z,9.57
2019-01-19T17:33:33.554Z,10.07
2019-01-19T17:36:33.876Z,9.43
2019-01-19T17:39:47.085Z,9.90
2019-01-19T17:42:28.198Z,10.20
2019-01-19T17:45:23.931Z,9.37
2019-01-19T17:48:29.161Z,9.30
2019-01-19T17:51:49.062Z,9.53
2019-01-19T17:55:01.230Z,9.80
2019-01-19T17:58:06.672Z,9.10
2019-01-19T18:01:17.985Z,9.97
2019-01-19T18:04:14.875Z,9.77
2019-01-19T18:07:23.940Z,9.83
2019-01-19T18:10:23.059Z,9.97
2019-01-19T18:13:27.137Z,9.67
2019-01-19T18:16:33.497Z,10.03
2019-01-19T18:19:29.841Z,10.73
2019-01-19T18:22:41.292Z,9.97
2019-01-19T18:26:02.587Z,9.87
2019-01-19T18:29:03.120Z,11.10
2019-01-19T18:32:10.028Z,10.87
2019-01-19T18:35:14.508Z,13.00
2019-01-19T18:38:25.021Z,12.77
2019-01-19T18:41:09.367Z,13.20
2019-01-19T18:44:11.008Z,13.20
2019-01-19T18:47:02.735Z,13.70
2019-01-19T18:50:28.306Z,12.87
2019-01-19T18:53:29.717Z,13.10
2019-01-19T18:56:34.422Z,12.80
2019-01-19T18:59:28.093Z,13.67
2019-01-19T19:02:49.188Z,13.70
2019-01-19T19:06:02.028Z,13.40
2019-01-19T19:09:02.184Z,14.30
2019-01-19T19:12:06.750Z,14.30
2019-01-19T19:15:10.917Z,15.40
2019-01-19T19:18:09.761Z,15.63
2019-01-19T19:21:23.194Z,15.87
2019-01-19T19:24:37.612Z,16.13
2019-01-19T19:27:36.493Z,22.90
2019-01-19T19:30:36.276Z,15.70
2019-01-19T19:33:37.186Z,17.50
2019-01-19T19:36:36.022Z,17.37
2019-01-19T19:39:52.538Z,16.93
2019-01-19T19:43:06.191Z,17.70
2019-01-19T19:45:56.855Z,18.43
2019-01-19T19:48:52.401Z,19.47
2019-01-19T19:51:58.555Z,20.07
2019-01-19T19:54:29.289Z,18.90
2019-01-19T19:56:59.293Z,19.60
2019-01-19T19:59:28.721Z,20.67
2019-01-19T20:01:58.098Z,21.97
2019-01-19T20:04:27.822Z,21.03
2019-01-19T20:06:57.723Z,22.23
2019-01-19T20:09:27.318Z,22.17
2019-01-19T20:12:05.821Z,23.97
2019-01-19T20:14:35.352Z,24.47
2019-01-19T20:17:04.962Z,26.23
2019-01-19T20:19:34.418Z,24.67
2019-01-19T20:22:06.598Z,25.47
2019-01-19T20:24:35.997Z,25.90
2019-01-19T20:27:06.470Z,26.17
2019-01-19T20:29:35.882Z,26.10
2019-01-19T20:32:05.518Z,25.50
2019-01-19T20:34:34.933Z,27.67
2019-01-19T20:37:04.442Z,26.53
2019-01-19T20:39:34.647Z,27.83
2019-01-19T20:42:04.000Z,26.93
2019-01-19T20:44:33.429Z,26.43
2019-01-19T20:47:02.930Z,28.07
2019-01-19T20:49:32.309Z,27.97
2019-01-19T20:52:01.691Z,27.17
2019-01-19T20:54:31.089Z,27.60
2019-01-19T20:57:00.453Z,27.27
2019-01-19T20:59:29.877Z,28.87
2019-01-19T21:01:59.352Z,26.77
2019-01-19T21:04:28.772Z,28.27
2019-01-19T21:06:58.225Z,29.57
2019-01-19T21:09:27.733Z,29.77
2019-01-19T21:11:57.159Z,28.40
2019-01-19T21:14:26.584Z,30.43
2019-01-19T21:16:58.966Z,29.30
2019-01-19T21:19:29.402Z,31.63
2019-01-19T21:21:58.776Z,28.83
2019-01-19T21:24:28.289Z,29.53
2019-01-19T21:26:57.813Z,29.27
2019-01-19T21:29:27.191Z,28.20
2019-01-19T21:31:56.550Z,27.03
2019-01-19T21:34:26.438Z,27.83
2019-01-19T21:36:55.866Z,26.67
2019-01-19T21:39:25.272Z,26.50
2019-01-19T21:41:54.617Z,25.53
2019-01-19T21:44:24.008Z,27.47
2019-01-19T21:46:53.439Z,26.93
2019-01-19T21:49:22.814Z,26.63
2019-01-19T21:51:52.202Z,26.97
2019-01-19T21:54:21.631Z,27.10
2019-01-19T21:56:51.076Z,27.97
2019-01-19T21:59:20.512Z,28.03
2019-01-19T22:01:49.912Z,28.27
2019-01-19T22:04:19.354Z,29.20
2019-01-19T22:06:48.845Z,28.83
2019-01-19T22:09:18.200Z,28.97
2019-01-19T22:11:47.604Z,29.57
2019-01-19T22:14:17.024Z,30.43
2019-01-19T22:16:46.451Z,35.03
2019-01-19T22:19:15.858Z,30.83
2019-01-19T22:21:45.310Z,31.20
2019-01-19T22:24:14.651Z,31.23
2019-01-19T22:26:45.564Z,32.03
2019-01-19T22:29:14.969Z,30.73
2019-01-19T22:31:44.357Z,31.70
2019-01-19T22:34:13.771Z,31.67
2019-01-19T22:36:43.150Z,30.73
2019-01-19T22:39:12.534Z,32.77
2019-01-19T22:41:41.944Z,32.50
2019-01-19T22:44:11.339Z,32.17
2019-01-19T22:46:40.740Z,30.97
2019-01-19T22:49:10.198Z,31.27
2019-01-19T22:51:39.646Z,32.07
2019-01-19T22:54:09.149Z,33.10
2019-01-19T22:56:38.540Z,33.10
2019-01-19T22:59:07.901Z,31.47
2019-01-19T23:01:48.615Z,31.67
2019-01-19T23:04:17.965Z,31.53
2019-01-19T23:06:47.337Z,29.87
2019-01-19T23:09:16.666Z,31.23
2019-01-19T23:11:46.005Z,32.20
2019-01-19T23:16:28.117Z,32.37
2019-01-19T23:18:57.435Z,31.57
2019-01-19T23:21:26.764Z,30.47
2019-01-19T23:23:56.120Z,32.07
2019-01-19T23:26:26.872Z,31.47
2019-01-19T23:28:56.260Z,31.37
2019-01-19T23:31:28.482Z,32.30
2019-01-19T23:33:57.855Z,31.40
2019-01-19T23:36:28.427Z,30.80
2019-01-19T23:38:57.860Z,31.80
2019-01-19T23:41:27.220Z,30.50
2019-01-19T23:43:56.687Z,30.23
2019-01-19T23:46:26.622Z,30.80
2019-01-19T23:48:56.019Z,29.90
2019-01-19T23:51:26.446Z,30.80
2019-01-19T23:53:55.793Z,29.43
2019-01-19T23:56:25.156Z,28.77
2019-01-19T23:58:54.517Z,29.27
